Louie C. — WDE7885 — position and weather

sailwx.info

Track history (hours):
 
Tides and Currents Weather Stations Pressure Air Temp Water Temp Dewpoint Dewpoint Depression Visibility Wind Speed Wind Dir Waves Ship Positions

Louie C.

Owner: Louie C., Bourg, LA. More information available from US FCC via Universal Licensing System and Coast Guard Vessel Documentation Center.

Last reported at 2018-Jun-25 00:30 UTC. Time now 2018-Jun-25 00:41 UTC.
Position N 29°32' W 090°42'.

Length 11 m; draft 2 m.

Type: Other ship. MMSI: 367398920.

Date/timePositionNaut miles runAvg speedWind from/ knotsBaromVisibWave heightAir tempDewpointWater temp
2018-Jun-25 00:30N 29°32' W 090°42'3 6.9
2018-Jun-25 00:00N 29°28' W 090°43'3 6.9
2018-Jun-24 23:30N 29°25' W 090°44'6 0.2
2018-Jun-23 16:22N 29°30' W 090°48'1 3.9
2018-Jun-23 16:00N 29°31' W 090°48'2 3.3
2018-Jun-23 15:30N 29°32' W 090°46'3 5.2
2018-Jun-23 14:59N 29°34' W 090°44'2 4.9
2018-Jun-23 14:30N 29°36' W 090°43'2 4.4
2018-Jun-23 14:01N 29°36' W 090°40'0 0.7
2018-Jun-23 13:30N 29°36' W 090°40'0 0.0
2018-Jun-23 13:00N 29°36' W 090°40'0 0.0
2018-Jun-23 12:30N 29°36' W 090°40'0 0.0
2018-Jun-23 12:00N 29°36' W 090°40'0 0.3
2018-Jun-23 11:30N 29°36' W 090°40'0 0.3
2018-Jun-23 11:00N 29°36' W 090°40'0 0.0
2018-Jun-23 10:30N 29°36' W 090°40'0 0.0
2018-Jun-23 10:00N 29°36' W 090°40'0 0.0
2018-Jun-23 09:30N 29°36' W 090°40'0 0.0
2018-Jun-23 09:00N 29°36' W 090°40'0 0.0
2018-Jun-23 08:30N 29°36' W 090°40'0 0.0
2018-Jun-23 08:00N 29°36' W 090°40'0 0.0
2018-Jun-23 07:29N 29°36' W 090°40'0 0.0
2018-Jun-23 07:00N 29°36' W 090°40'0 0.0
2018-Jun-23 06:30N 29°36' W 090°40'0 0.0
2018-Jun-23 06:00N 29°36' W 090°40'0 0.0
2018-Jun-23 05:30N 29°36' W 090°40'0 0.0
2018-Jun-23 05:00N 29°36' W 090°40'0 0.3
2018-Jun-23 04:30N 29°36' W 090°40'0 0.0
2018-Jun-23 04:00N 29°36' W 090°40'0 0.0
2018-Jun-23 03:30N 29°36' W 090°40'0 0.0
2018-Jun-23 02:59N 29°36' W 090°40'1 2.4
2018-Jun-23 02:30N 29°36' W 090°41'1 2.9
2018-Jun-23 02:00N 29°36' W 090°43'2 3.9
2018-Jun-23 01:30N 29°34' W 090°43'1 2.9
2018-Jun-23 01:00N 29°33' W 090°42'3 5.6
2018-Jun-23 00:30N 29°30' W 090°43'3 5.6
2018-Jun-23 00:00N 29°27' W 090°43'4 5.1
2018-Jun-22 23:19N 29°24' W 090°44'5 3.6
2018-Jun-22 21:56N 29°25' W 090°49'1 0.0
2018-Jun-21 02:52N 29°27' W 090°50'4 4.7
2018-Jun-21 02:07N 29°30' W 090°48'0 4.1
2018-Jun-21 02:00N 29°30' W 090°48'2 3.6
2018-Jun-21 01:28N 29°32' W 090°48'2 4.7
2018-Jun-21 01:00N 29°33' W 090°45'2 3.4
2018-Jun-21 00:30N 29°34' W 090°44'1 1.3
2018-Jun-21 00:00N 29°34' W 090°43'2 3.6
2018-Jun-20 23:30N 29°36' W 090°43'2 3.6
2018-Jun-20 23:00N 29°36' W 090°41'1 1.3
2018-Jun-20 22:29N 29°36' W 090°40'0 0.0
2018-Jun-20 22:00N 29°36' W 090°40'0 0.0
2018-Jun-20 21:30N 29°36' W 090°40'0 0.0
2018-Jun-20 20:56N 29°36' W 090°40'0 0.0
2018-Jun-20 20:30N 29°36' W 090°40'0 0.0
2018-Jun-20 20:00N 29°36' W 090°40'0 0.3
2018-Jun-20 19:30N 29°36' W 090°40'1 1.8
2018-Jun-20 19:00N 29°36' W 090°41'2 4.2
2018-Jun-20 18:30N 29°35' W 090°43'2 4.5
2018-Jun-20 18:00N 29°33' W 090°42'3 6.5
2018-Jun-20 17:30N 29°30' W 090°43'3 6.7
2018-Jun-20 17:00N 29°26' W 090°43'3 0.1
2018-Jun-18 22:51N 29°25' W 090°47'2 6.1
2018-Jun-18 22:30N 29°24' W 090°44'3 6.3
2018-Jun-18 21:59N 29°27' W 090°43'4 7.6
2018-Jun-18 21:30N 29°30' W 090°43'3 6.5
2018-Jun-18 21:00N 29°34' W 090°43'2 4.5
2018-Jun-18 20:30N 29°36' W 090°43'2 4.0
2018-Jun-18 20:00N 29°36' W 090°40'1 1.2
2018-Jun-18 19:30N 29°36' W 090°40'0 0.1
2018-Jun-18 18:59N 29°36' W 090°40'0 0.0
2018-Jun-18 18:30N 29°36' W 090°40'0 0.0
2018-Jun-18 18:00N 29°36' W 090°40'0 0.0
2018-Jun-18 17:30N 29°36' W 090°40'0 0.0
2018-Jun-18 16:59N 29°36' W 090°40'0 0.0
2018-Jun-18 16:30N 29°36' W 090°40'0 0.0
2018-Jun-18 15:56N 29°36' W 090°40'0 0.0
2018-Jun-18 15:30N 29°36' W 090°40'0 0.0
2018-Jun-18 14:59N 29°36' W 090°40'0 0.0
2018-Jun-18 14:30N 29°36' W 090°40'0 0.0
2018-Jun-18 14:00N 29°36' W 090°40'0 0.0
2018-Jun-18 13:30N 29°36' W 090°40'0 0.0
2018-Jun-18 13:00N 29°36' W 090°40'0 0.0
2018-Jun-18 12:30N 29°36' W 090°40'0 0.0
2018-Jun-18 12:00N 29°36' W 090°40'0 0.0
2018-Jun-18 11:30N 29°36' W 090°40'0 0.0
2018-Jun-18 11:00N 29°36' W 090°40'0 0.0
2018-Jun-18 10:30N 29°36' W 090°40'0 0.0
2018-Jun-18 10:00N 29°36' W 090°40'0 0.0
2018-Jun-18 09:30N 29°36' W 090°40'0 0.0
2018-Jun-18 08:59N 29°36' W 090°40'0 0.0
2018-Jun-18 08:30N 29°36' W 090°40'0 0.0
2018-Jun-18 08:00N 29°36' W 090°40'0 0.0
2018-Jun-18 07:30N 29°36' W 090°40'0 0.0
2018-Jun-18 07:00N 29°36' W 090°40'0 0.0
2018-Jun-18 06:30N 29°36' W 090°40'0 0.3
2018-Jun-18 05:52N 29°36' W 090°40'0 0.0
2018-Jun-18 05:30N 29°36' W 090°40'1 1.3
2018-Jun-18 05:00N 29°36' W 090°40'2 4.2
2018-Jun-18 04:30N 29°35' W 090°43'3 6.0
2018-Jun-18 04:00N 29°32' W 090°42'4 7.4
2018-Jun-18 03:29N 29°29' W 090°43'5 0.6
2018-Jun-17 17:56N 29°25' W 090°47'2 5.4
2018-Jun-17 17:30N 29°24' W 090°45'2 4.6
2018-Jun-17 17:00N 29°26' W 090°43'3 6.5
2018-Jun-17 16:30N 29°29' W 090°43'3 6.6
2018-Jun-17 16:00N 29°32' W 090°42'3 5.9
2018-Jun-17 15:30N 29°35' W 090°43'2 3.9
2018-Jun-17 15:00N 29°36' W 090°41'1 2.4
2018-Jun-17 14:30N 29°36' W 090°40'0 0.0
2018-Jun-17 13:59N 29°36' W 090°40'0 0.0
2018-Jun-17 13:30N 29°36' W 090°40'0 0.0
2018-Jun-17 13:00N 29°36' W 090°40'0 0.0
2018-Jun-17 12:30N 29°36' W 090°40'0 0.0
2018-Jun-17 12:00N 29°36' W 090°40'0 0.0
2018-Jun-17 11:30N 29°36' W 090°40'0 0.0
2018-Jun-17 11:00N 29°36' W 090°40'0 0.0
2018-Jun-17 10:29N 29°36' W 090°40'0 0.0
2018-Jun-17 10:00N 29°36' W 090°40'0 0.0
2018-Jun-17 09:30N 29°36' W 090°40'0 0.0
2018-Jun-17 09:00N 29°36' W 090°40'0 0.0
2018-Jun-17 08:30N 29°36' W 090°40'0 0.0
2018-Jun-17 07:59N 29°36' W 090°40'0 0.0
2018-Jun-17 07:30N 29°36' W 090°40'0 0.0
2018-Jun-17 07:00N 29°36' W 090°40'0 0.0
2018-Jun-17 06:30N 29°36' W 090°40'0 0.0
2018-Jun-17 06:00N 29°36' W 090°40'0 0.0
2018-Jun-17 05:30N 29°36' W 090°40'0 0.0
2018-Jun-17 05:00N 29°36' W 090°40'0 0.0
2018-Jun-17 04:30N 29°36' W 090°40'0 0.0
2018-Jun-17 04:00N 29°36' W 090°40'0 0.0
2018-Jun-17 03:30N 29°36' W 090°40'0 0.0
2018-Jun-17 03:00N 29°36' W 090°40'0 0.0
2018-Jun-17 02:29N 29°36' W 090°40'0 0.0
2018-Jun-17 01:58N 29°36' W 090°40'0 0.4
2018-Jun-17 01:30N 29°36' W 090°40'0 0.0
2018-Jun-17 00:59N 29°36' W 090°40'0 0.0
2018-Jun-17 00:27N 29°36' W 090°40'0 0.0
2018-Jun-17 00:00N 29°36' W 090°40'0 0.0
2018-Jun-16 23:30N 29°36' W 090°40'1 1.6
2018-Jun-16 23:00N 29°36' W 090°41'2 4.0
2018-Jun-16 22:30N 29°35' W 090°43'3 6.1
2018-Jun-16 22:00N 29°32' W 090°42'4 7.7
2018-Jun-16 21:30N 29°28' W 090°43'7 3.8
2018-Jun-16 19:46N 29°25' W 090°50'3 0.1
2018-Jun-15 16:28N 29°25' W 090°47'3 4.2
2018-Jun-15 15:51N 29°25' W 090°44'2 7.0
2018-Jun-15 15:30N 29°27' W 090°43'4 7.1
2018-Jun-15 15:00N 29°31' W 090°43'3 6.8
2018-Jun-15 14:30N 29°34' W 090°43'3 5.2
2018-Jun-15 14:00N 29°37' W 090°42'2 5.0
2018-Jun-15 13:30N 29°36' W 090°40'0 0.0
2018-Jun-15 13:00N 29°36' W 090°40'0 0.0
2018-Jun-15 12:30N 29°36' W 090°40'0 0.0
2018-Jun-15 12:00N 29°36' W 090°40'0 0.0
2018-Jun-15 11:30N 29°36' W 090°40'0 0.0
2018-Jun-15 11:00N 29°36' W 090°40'0 0.0
2018-Jun-15 10:30N 29°36' W 090°40'0 0.0
2018-Jun-15 10:00N 29°36' W 090°40'0 0.0
2018-Jun-15 09:30N 29°36' W 090°40'0 0.0
2018-Jun-15 09:00N 29°36' W 090°40'0 0.0
2018-Jun-15 08:30N 29°36' W 090°40'0 0.0
2018-Jun-15 08:00N 29°36' W 090°40'0 0.0
2018-Jun-15 07:30N 29°36' W 090°40'0 0.0
2018-Jun-15 07:00N 29°36' W 090°40'2 4.0
2018-Jun-15 06:30N 29°37' W 090°42'3 5.1
2018-Jun-15 06:00N 29°34' W 090°43'3 5.2
2018-Jun-15 05:30N 29°32' W 090°42'3 6.4
2018-Jun-15 05:00N 29°29' W 090°43'3 6.2
2018-Jun-15 04:30N 29°26' W 090°43'5 3.8
2018-Jun-15 03:17N 29°25' W 090°49'1 4.6
2018-Jun-15 02:58N 29°25' W 090°50'  
Track history (hours):
 
Tides and Currents Weather Stations Pressure Air Temp Water Temp Dewpoint Dewpoint Depression Visibility Wind Speed Wind Dir Waves Ship Positions

Louie C.

Owner: Louie C., Bourg, LA. More information available from US FCC via Universal Licensing System and Coast Guard Vessel Documentation Center.

Last reported at 2018-Jun-25 00:30 UTC. Time now 2018-Jun-25 00:41 UTC.
Position N 29°32' W 090°42'.

Length 11 m; draft 2 m.

Type: Other ship. MMSI: 367398920.

Date/timePositionNaut miles runAvg speedWind from/ knotsBaromVisibWave heightAir tempDewpointWater temp
2018-Jun-25 00:30N 29°32' W 090°42'3 6.9
2018-Jun-25 00:00N 29°28' W 090°43'3 6.9
2018-Jun-24 23:30N 29°25' W 090°44'6 0.2
2018-Jun-23 16:22N 29°30' W 090°48'1 3.9
2018-Jun-23 16:00N 29°31' W 090°48'2 3.3
2018-Jun-23 15:30N 29°32' W 090°46'3 5.2
2018-Jun-23 14:59N 29°34' W 090°44'2 4.9
2018-Jun-23 14:30N 29°36' W 090°43'2 4.4
2018-Jun-23 14:01N 29°36' W 090°40'0 0.7
2018-Jun-23 13:30N 29°36' W 090°40'0 0.0
2018-Jun-23 13:00N 29°36' W 090°40'0 0.0
2018-Jun-23 12:30N 29°36' W 090°40'0 0.0
2018-Jun-23 12:00N 29°36' W 090°40'0 0.3
2018-Jun-23 11:30N 29°36' W 090°40'0 0.3
2018-Jun-23 11:00N 29°36' W 090°40'0 0.0
2018-Jun-23 10:30N 29°36' W 090°40'0 0.0
2018-Jun-23 10:00N 29°36' W 090°40'0 0.0
2018-Jun-23 09:30N 29°36' W 090°40'0 0.0
2018-Jun-23 09:00N 29°36' W 090°40'0 0.0
2018-Jun-23 08:30N 29°36' W 090°40'0 0.0
2018-Jun-23 08:00N 29°36' W 090°40'0 0.0
2018-Jun-23 07:29N 29°36' W 090°40'0 0.0
2018-Jun-23 07:00N 29°36' W 090°40'0 0.0
2018-Jun-23 06:30N 29°36' W 090°40'0 0.0
2018-Jun-23 06:00N 29°36' W 090°40'0 0.0
2018-Jun-23 05:30N 29°36' W 090°40'0 0.0
2018-Jun-23 05:00N 29°36' W 090°40'0 0.3
2018-Jun-23 04:30N 29°36' W 090°40'0 0.0
2018-Jun-23 04:00N 29°36' W 090°40'0 0.0
2018-Jun-23 03:30N 29°36' W 090°40'0 0.0
2018-Jun-23 02:59N 29°36' W 090°40'1 2.4
2018-Jun-23 02:30N 29°36' W 090°41'1 2.9
2018-Jun-23 02:00N 29°36' W 090°43'2 3.9
2018-Jun-23 01:30N 29°34' W 090°43'1 2.9
2018-Jun-23 01:00N 29°33' W 090°42'3 5.6
2018-Jun-23 00:30N 29°30' W 090°43'3 5.6
2018-Jun-23 00:00N 29°27' W 090°43'4 5.1
2018-Jun-22 23:19N 29°24' W 090°44'5 3.6
2018-Jun-22 21:56N 29°25' W 090°49'1 0.0
2018-Jun-21 02:52N 29°27' W 090°50'4 4.7
2018-Jun-21 02:07N 29°30' W 090°48'0 4.1
2018-Jun-21 02:00N 29°30' W 090°48'2 3.6
2018-Jun-21 01:28N 29°32' W 090°48'2 4.7
2018-Jun-21 01:00N 29°33' W 090°45'2 3.4
2018-Jun-21 00:30N 29°34' W 090°44'1 1.3
2018-Jun-21 00:00N 29°34' W 090°43'2 3.6
2018-Jun-20 23:30N 29°36' W 090°43'2 3.6
2018-Jun-20 23:00N 29°36' W 090°41'1 1.3
2018-Jun-20 22:29N 29°36' W 090°40'0 0.0
2018-Jun-20 22:00N 29°36' W 090°40'0 0.0
2018-Jun-20 21:30N 29°36' W 090°40'0 0.0
2018-Jun-20 20:56N 29°36' W 090°40'0 0.0
2018-Jun-20 20:30N 29°36' W 090°40'0 0.0
2018-Jun-20 20:00N 29°36' W 090°40'0 0.3
2018-Jun-20 19:30N 29°36' W 090°40'1 1.8
2018-Jun-20 19:00N 29°36' W 090°41'2 4.2
2018-Jun-20 18:30N 29°35' W 090°43'2 4.5
2018-Jun-20 18:00N 29°33' W 090°42'3 6.5
2018-Jun-20 17:30N 29°30' W 090°43'3 6.7
2018-Jun-20 17:00N 29°26' W 090°43'3 0.1
2018-Jun-18 22:51N 29°25' W 090°47'2 6.1
2018-Jun-18 22:30N 29°24' W 090°44'3 6.3
2018-Jun-18 21:59N 29°27' W 090°43'4 7.6
2018-Jun-18 21:30N 29°30' W 090°43'3 6.5
2018-Jun-18 21:00N 29°34' W 090°43'2 4.5
2018-Jun-18 20:30N 29°36' W 090°43'2 4.0
2018-Jun-18 20:00N 29°36' W 090°40'1 1.2
2018-Jun-18 19:30N 29°36' W 090°40'0 0.1
2018-Jun-18 18:59N 29°36' W 090°40'0 0.0
2018-Jun-18 18:30N 29°36' W 090°40'0 0.0
2018-Jun-18 18:00N 29°36' W 090°40'0 0.0
2018-Jun-18 17:30N 29°36' W 090°40'0 0.0
2018-Jun-18 16:59N 29°36' W 090°40'0 0.0
2018-Jun-18 16:30N 29°36' W 090°40'0 0.0
2018-Jun-18 15:56N 29°36' W 090°40'0 0.0
2018-Jun-18 15:30N 29°36' W 090°40'0 0.0
2018-Jun-18 14:59N 29°36' W 090°40'0 0.0
2018-Jun-18 14:30N 29°36' W 090°40'0 0.0
2018-Jun-18 14:00N 29°36' W 090°40'0 0.0
2018-Jun-18 13:30N 29°36' W 090°40'0 0.0
2018-Jun-18 13:00N 29°36' W 090°40'0 0.0
2018-Jun-18 12:30N 29°36' W 090°40'0 0.0
2018-Jun-18 12:00N 29°36' W 090°40'0 0.0
2018-Jun-18 11:30N 29°36' W 090°40'0 0.0
2018-Jun-18 11:00N 29°36' W 090°40'0 0.0
2018-Jun-18 10:30N 29°36' W 090°40'0 0.0
2018-Jun-18 10:00N 29°36' W 090°40'0 0.0
2018-Jun-18 09:30N 29°36' W 090°40'0 0.0
2018-Jun-18 08:59N 29°36' W 090°40'0 0.0
2018-Jun-18 08:30N 29°36' W 090°40'0 0.0
2018-Jun-18 08:00N 29°36' W 090°40'0 0.0
2018-Jun-18 07:30N 29°36' W 090°40'0 0.0
2018-Jun-18 07:00N 29°36' W 090°40'0 0.0
2018-Jun-18 06:30N 29°36' W 090°40'0 0.3
2018-Jun-18 05:52N 29°36' W 090°40'0 0.0
2018-Jun-18 05:30N 29°36' W 090°40'1 1.3
2018-Jun-18 05:00N 29°36' W 090°40'2 4.2
2018-Jun-18 04:30N 29°35' W 090°43'3 6.0
2018-Jun-18 04:00N 29°32' W 090°42'4 7.4
2018-Jun-18 03:29N 29°29' W 090°43'5 0.6
2018-Jun-17 17:56N 29°25' W 090°47'2 5.4
2018-Jun-17 17:30N 29°24' W 090°45'2 4.6
2018-Jun-17 17:00N 29°26' W 090°43'3 6.5
2018-Jun-17 16:30N 29°29' W 090°43'3 6.6
2018-Jun-17 16:00N 29°32' W 090°42'3 5.9
2018-Jun-17 15:30N 29°35' W 090°43'2 3.9
2018-Jun-17 15:00N 29°36' W 090°41'1 2.4
2018-Jun-17 14:30N 29°36' W 090°40'0 0.0
2018-Jun-17 13:59N 29°36' W 090°40'0 0.0
2018-Jun-17 13:30N 29°36' W 090°40'0 0.0
2018-Jun-17 13:00N 29°36' W 090°40'0 0.0
2018-Jun-17 12:30N 29°36' W 090°40'0 0.0
2018-Jun-17 12:00N 29°36' W 090°40'0 0.0
2018-Jun-17 11:30N 29°36' W 090°40'0 0.0
2018-Jun-17 11:00N 29°36' W 090°40'0 0.0
2018-Jun-17 10:29N 29°36' W 090°40'0 0.0
2018-Jun-17 10:00N 29°36' W 090°40'0 0.0
2018-Jun-17 09:30N 29°36' W 090°40'0 0.0
2018-Jun-17 09:00N 29°36' W 090°40'0 0.0
2018-Jun-17 08:30N 29°36' W 090°40'0 0.0
2018-Jun-17 07:59N 29°36' W 090°40'0 0.0
2018-Jun-17 07:30N 29°36' W 090°40'0 0.0
2018-Jun-17 07:00N 29°36' W 090°40'0 0.0
2018-Jun-17 06:30N 29°36' W 090°40'0 0.0
2018-Jun-17 06:00N 29°36' W 090°40'0 0.0
2018-Jun-17 05:30N 29°36' W 090°40'0 0.0
2018-Jun-17 05:00N 29°36' W 090°40'0 0.0
2018-Jun-17 04:30N 29°36' W 090°40'0 0.0
2018-Jun-17 04:00N 29°36' W 090°40'0 0.0
2018-Jun-17 03:30N 29°36' W 090°40'0 0.0
2018-Jun-17 03:00N 29°36' W 090°40'0 0.0
2018-Jun-17 02:29N 29°36' W 090°40'0 0.0
2018-Jun-17 01:58N 29°36' W 090°40'0 0.4
2018-Jun-17 01:30N 29°36' W 090°40'0 0.0
2018-Jun-17 00:59N 29°36' W 090°40'0 0.0
2018-Jun-17 00:27N 29°36' W 090°40'0 0.0
2018-Jun-17 00:00N 29°36' W 090°40'0 0.0
2018-Jun-16 23:30N 29°36' W 090°40'1 1.6
2018-Jun-16 23:00N 29°36' W 090°41'2 4.0
2018-Jun-16 22:30N 29°35' W 090°43'3 6.1
2018-Jun-16 22:00N 29°32' W 090°42'4 7.7
2018-Jun-16 21:30N 29°28' W 090°43'7 3.8
2018-Jun-16 19:46N 29°25' W 090°50'3 0.1
2018-Jun-15 16:28N 29°25' W 090°47'3 4.2
2018-Jun-15 15:51N 29°25' W 090°44'2 7.0
2018-Jun-15 15:30N 29°27' W 090°43'4 7.1
2018-Jun-15 15:00N 29°31' W 090°43'3 6.8
2018-Jun-15 14:30N 29°34' W 090°43'3 5.2
2018-Jun-15 14:00N 29°37' W 090°42'2 5.0
2018-Jun-15 13:30N 29°36' W 090°40'0 0.0
2018-Jun-15 13:00N 29°36' W 090°40'0 0.0
2018-Jun-15 12:30N 29°36' W 090°40'0 0.0
2018-Jun-15 12:00N 29°36' W 090°40'0 0.0
2018-Jun-15 11:30N 29°36' W 090°40'0 0.0
2018-Jun-15 11:00N 29°36' W 090°40'0 0.0
2018-Jun-15 10:30N 29°36' W 090°40'0 0.0
2018-Jun-15 10:00N 29°36' W 090°40'0 0.0
2018-Jun-15 09:30N 29°36' W 090°40'0 0.0
2018-Jun-15 09:00N 29°36' W 090°40'0 0.0
2018-Jun-15 08:30N 29°36' W 090°40'0 0.0
2018-Jun-15 08:00N 29°36' W 090°40'0 0.0
2018-Jun-15 07:30N 29°36' W 090°40'0 0.0
2018-Jun-15 07:00N 29°36' W 090°40'2 4.0
2018-Jun-15 06:30N 29°37' W 090°42'3 5.1
2018-Jun-15 06:00N 29°34' W 090°43'3 5.2
2018-Jun-15 05:30N 29°32' W 090°42'3 6.4
2018-Jun-15 05:00N 29°29' W 090°43'3 6.2
2018-Jun-15 04:30N 29°26' W 090°43'5 3.8
2018-Jun-15 03:17N 29°25' W 090°49'1 4.6
2018-Jun-15 02:58N 29°25' W 090°50'  

Dump ship's entire track history